Time;durP1;ratioP1;P1;durP2;ratioP2;P2;SDS_P1;SDS_P2;PMS_P1;PMS_P2;Temp;Humidity;BMP_temperature;BMP_pressure;BME280_temperature;BME280_humidity;BME280_pressure;Samples;Min_cycle;Max_cycle;Signal;HPM_P1;HPM_P2
2021/11/09 00:01:25;;;;;;;2.30;0.80;;;7.20;94.00;;;;;;4956365;28;20070;-74
2021/11/09 00:04:05;;;;;;;2.42;0.95;;;7.10;94.00;;;;;;4953948;28;20047;-74
2021/11/09 00:06:38;;;;;;;1.60;0.70;;;7.20;94.00;;;;;;4950654;28;20094;-74
2021/11/09 00:09:12;;;;;;;3.28;1.17;;;7.10;93.90;;;;;;4959155;28;20102;-74
2021/11/09 00:11:39;;;;;;;2.53;1.08;;;7.10;93.90;;;;;;4942971;28;20043;-74
2021/11/09 00:14:07;;;;;;;2.70;1.00;;;7.10;94.20;;;;;;4957281;28;20039;-74
2021/11/09 00:16:34;;;;;;;2.78;0.60;;;7.00;94.00;;;;;;4958103;28;20087;-74
2021/11/09 00:19:02;;;;;;;1.80;0.90;;;7.00;94.00;;;;;;4957681;28;20105;-75
2021/11/09 00:21:31;;;;;;;1.77;0.80;;;7.00;94.00;;;;;;4956102;28;20106;-73
2021/11/09 00:24:00;;;;;;;3.00;0.90;;;7.00;94.00;;;;;;4958727;28;20119;-74
2021/11/09 00:26:28;;;;;;;2.50;1.00;;;6.90;94.00;;;;;;4955759;28;20097;-74
2021/11/09 00:28:57;;;;;;;2.55;1.10;;;6.90;94.00;;;;;;4956546;28;20054;-74
2021/11/09 00:31:24;;;;;;;2.10;0.70;;;6.90;94.00;;;;;;4948627;28;20078;-73
2021/11/09 00:33:52;;;;;;;1.67;0.80;;;6.90;94.00;;;;;;4954545;28;20097;-74
2021/11/09 00:36:19;;;;;;;2.05;0.73;;;6.80;94.00;;;;;;4956570;28;20047;-74
2021/11/09 00:38:46;;;;;;;2.03;0.80;;;6.80;94.00;;;;;;4957453;28;20062;-74
2021/11/09 00:41:13;;;;;;;3.35;0.80;;;6.80;94.00;;;;;;4953853;28;20086;-75
2021/11/09 00:43:40;;;;;;;2.13;0.80;;;6.80;94.00;;;;;;4941054;28;20039;-74
2021/11/09 00:46:07;;;;;;;2.33;0.80;;;6.80;94.00;;;;;;4958922;28;20055;-74
2021/11/09 00:48:35;;;;;;;1.77;0.82;;;6.70;94.00;;;;;;4962106;28;20466;-74
2021/11/09 00:51:02;;;;;;;3.08;0.98;;;6.70;94.00;;;;;;4957207;28;20086;-74
2021/11/09 00:53:29;;;;;;;2.67;1.20;;;6.70;94.00;;;;;;4955155;28;20043;-74
2021/11/09 00:55:56;;;;;;;3.13;1.23;;;6.70;94.10;;;;;;4957174;28;20039;-74
2021/11/09 00:58:23;;;;;;;1.60;0.90;;;6.70;94.30;;;;;;4959159;28;20105;-74
2021/11/09 01:00:50;;;;;;;2.78;0.90;;;6.70;94.10;;;;;;4955929;28;20498;-74
2021/11/09 01:03:18;;;;;;;2.47;0.98;;;6.60;94.10;;;;;;4953444;28;20063;-74
2021/11/09 01:05:45;;;;;;;2.83;0.90;;;6.60;94.10;;;;;;4951228;28;20051;-74
2021/11/09 01:08:15;;;;;;;2.97;1.23;;;6.60;94.10;;;;;;4942197;28;20145;-74
2021/11/09 01:10:46;;;;;;;2.28;0.93;;;6.60;94.10;;;;;;4952426;28;20125;-74
2021/11/09 01:13:14;;;;;;;2.97;0.98;;;6.50;94.10;;;;;;4961493;28;20120;-74
2021/11/09 01:15:50;;;;;;;2.15;0.90;;;6.50;94.10;;;;;;4947435;28;20043;-74
2021/11/09 01:18:27;;;;;;;3.20;1.00;;;6.50;94.10;;;;;;4960128;28;20055;-74
2021/11/09 01:20:56;;;;;;;1.88;0.73;;;6.50;94.10;;;;;;4955790;28;20047;-74
2021/11/09 01:23:23;;;;;;;1.95;1.10;;;6.50;94.10;;;;;;4959302;28;20089;-74
2021/11/09 01:25:51;;;;;;;2.15;0.80;;;6.50;94.10;;;;;;4953453;28;20039;-74
2021/11/09 01:28:18;;;;;;;2.47;1.00;;;6.40;94.10;;;;;;4962340;28;20157;-74
2021/11/09 01:30:46;;;;;;;1.67;0.90;;;6.40;94.10;;;;;;4947671;28;20035;-74
2021/11/09 01:33:14;;;;;;;2.85;1.10;;;6.40;94.10;;;;;;4961692;28;20047;-74
2021/11/09 01:35:43;;;;;;;2.28;1.00;;;6.40;94.10;;;;;;4943926;28;20042;-74
2021/11/09 01:38:10;;;;;;;2.50;1.15;;;6.40;94.10;;;;;;4946508;28;20050;-74
2021/11/09 01:40:39;;;;;;;3.42;1.30;;;6.30;94.10;;;;;;4957631;28;20438;-74
2021/11/09 01:43:07;;;;;;;1.90;0.73;;;6.30;94.10;;;;;;4958082;28;20396;-74
2021/11/09 01:45:35;;;;;;;2.72;1.00;;;6.30;94.10;;;;;;4957847;28;20050;-74
2021/11/09 01:48:03;;;;;;;1.85;0.98;;;6.30;94.10;;;;;;4957016;28;20046;-74
2021/11/09 01:50:36;;;;;;;4.28;1.08;;;6.30;94.10;;;;;;4954263;28;20146;-74
2021/11/09 01:53:04;;;;;;;2.83;1.35;;;6.20;94.10;;;;;;4957337;28;20074;-74
2021/11/09 01:55:33;;;;;;;2.60;0.95;;;6.20;94.20;;;;;;4958346;28;20102;-74
2021/11/09 01:58:00;;;;;;;4.43;1.00;;;6.20;94.20;;;;;;4956948;28;20046;-74
2021/11/09 02:00:35;;;;;;;1.38;0.70;;;6.20;94.10;;;;;;4956863;28;20039;-74
2021/11/09 02:03:03;;;;;;;2.25;1.27;;;6.20;94.20;;;;;;4961484;28;20054;-74
2021/11/09 02:05:30;;;;;;;2.60;1.00;;;6.10;94.10;;;;;;4955168;28;20039;-74
2021/11/09 02:08:00;;;;;;;2.30;0.70;;;6.10;94.10;;;;;;4958279;28;20059;-74
2021/11/09 02:10:31;;;;;;;2.45;1.10;;;6.10;94.20;;;;;;4965391;28;20440;-74
2021/11/09 02:12:58;;;;;;;2.60;0.77;;;6.10;94.20;;;;;;4958195;28;20086;-74
2021/11/09 02:15:27;;;;;;;1.77;0.90;;;6.00;94.20;;;;;;4958025;28;20779;-73
2021/11/09 02:17:55;;;;;;;2.97;1.00;;;6.00;94.20;;;;;;4955098;28;20102;-74
2021/11/09 02:20:25;;;;;;;2.17;0.77;;;6.00;94.30;;;;;;4959799;28;20055;-74
2021/11/09 02:22:54;;;;;;;2.85;0.95;;;6.00;94.20;;;;;;4939794;28;20384;-75
2021/11/09 02:25:24;;;;;;;2.28;0.88;;;6.00;94.20;;;;;;4957883;28;20407;-74
2021/11/09 02:27:52;;;;;;;2.92;1.00;;;6.00;94.20;;;;;;4954994;28;20423;-73
2021/11/09 02:30:23;;;;;;;3.05;1.10;;;5.90;94.10;;;;;;4956207;28;20077;-74
2021/11/09 02:32:54;;;;;;;1.83;0.90;;;5.90;94.40;;;;;;4957467;28;20050;-74
2021/11/09 02:35:22;;;;;;;1.98;0.88;;;5.90;94.10;;;;;;4962082;28;20063;-74
2021/11/09 02:37:52;;;;;;;2.13;0.93;;;5.90;94.20;;;;;;4959291;28;20039;-74
2021/11/09 02:40:20;;;;;;;3.38;1.23;;;5.90;94.20;;;;;;4957706;28;20542;-74
2021/11/09 02:42:50;;;;;;;1.75;0.82;;;5.90;94.20;;;;;;4954397;28;20038;-74
2021/11/09 02:45:31;;;;;;;1.90;0.90;;;5.80;94.20;;;;;;4959012;28;20391;-74
2021/11/09 02:48:06;;;;;;;1.27;0.73;;;5.80;94.20;;;;;;4955332;28;20039;-74
2021/11/09 02:50:37;;;;;;;1.95;0.75;;;5.80;94.20;;;;;;4958174;28;20071;-74
2021/11/09 02:53:17;;;;;;;1.70;0.70;;;5.80;94.20;;;;;;4954101;28;20561;-74
2021/11/09 02:55:49;;;;;;;2.40;1.17;;;5.80;94.20;;;;;;4960434;28;20047;-74
2021/11/09 02:58:40;;;;;;;3.28;1.00;;;5.80;94.20;;;;;;4938848;28;20066;-74
2021/11/09 03:01:12;;;;;;;2.20;1.30;;;5.80;94.20;;;;;;4958447;28;20140;-74
2021/11/09 03:08:48;;;;;;;1.55;0.80;;;5.70;94.10;;;;;;4954926;28;20188;-74
2021/11/09 03:11:16;;;;;;;2.10;0.82;;;5.70;94.10;;;;;;4953481;28;20103;-74
2021/11/09 03:13:44;;;;;;;2.40;0.85;;;5.70;94.10;;;;;;4961454;28;20035;-74
2021/11/09 03:16:13;;;;;;;1.83;0.88;;;5.60;94.10;;;;;;4971683;28;20062;-74
2021/11/09 03:18:46;;;;;;;1.92;0.90;;;5.60;94.10;;;;;;4967928;28;20034;-74
2021/11/09 03:40:36;;;;;;;1.88;0.60;;;5.50;94.40;;;;;;4963761;28;20046;-74
2021/11/09 03:45:50;;;;;;;1.33;0.90;;;5.50;94.20;;;;;;4959115;28;20063;-74
2021/11/09 03:48:18;;;;;;;2.17;0.70;;;5.50;94.20;;;;;;4956582;28;20049;-74
2021/11/09 03:50:46;;;;;;;2.90;0.82;;;5.50;94.20;;;;;;4956247;28;20057;-74
2021/11/09 03:53:21;;;;;;;1.45;0.75;;;5.50;94.20;;;;;;4955932;28;20047;-74
2021/11/09 03:58:28;;;;;;;3.13;1.00;;;5.40;94.20;;;;;;4956337;28;20077;-74
2021/11/09 04:01:18;;;;;;;5.57;1.55;;;5.40;94.20;;;;;;4955614;28;20712;-74
2021/11/09 04:04:08;;;;;;;1.85;1.10;;;5.40;94.20;;;;;;4958365;28;20102;-74
2021/11/09 04:06:43;;;;;;;2.03;0.77;;;5.40;94.50;;;;;;4957196;28;20491;-74
2021/11/09 04:09:33;;;;;;;1.92;0.90;;;5.40;94.20;;;;;;4937164;28;20075;-74
2021/11/09 04:12:10;;;;;;;1.75;0.80;;;5.40;94.20;;;;;;4964088;28;20531;-74
2021/11/09 04:14:45;;;;;;;2.47;0.90;;;5.30;94.20;;;;;;4941964;28;20125;-74
2021/11/09 04:25:28;;;;;;;1.63;0.75;;;5.30;94.20;;;;;;4959540;28;20047;-74
2021/11/09 05:09:41;;;;;;;2.78;1.00;;;4.90;94.30;;;;;;4953610;28;20137;-74
2021/11/09 05:11:40;;;;;;;2.35;0.80;;;4.90;94.30;;;;;;4941075;28;20050;-75
2021/11/09 05:14:09;;;;;;;3.35;1.00;;;4.90;94.30;;;;;;4956639;28;20479;-74
2021/11/09 05:16:39;;;;;;;3.25;1.38;;;4.90;94.30;;;;;;4961911;28;20039;-74
2021/11/09 05:19:06;;;;;;;2.30;0.90;;;4.90;94.30;;;;;;4929837;28;20121;-74
2021/11/09 05:21:34;;;;;;;3.22;1.65;;;4.90;94.30;;;;;;4959634;28;20047;-74
2021/11/09 05:24:02;;;;;;;2.28;1.10;;;4.90;94.50;;;;;;4958500;28;20067;-75
2021/11/09 05:26:29;;;;;;;2.28;1.10;;;4.90;94.20;;;;;;4964280;28;20070;-73
2021/11/09 05:28:56;;;;;;;2.72;1.10;;;4.90;94.20;;;;;;4958284;28;20082;-74
2021/11/09 05:31:24;;;;;;;2.20;0.93;;;4.90;94.30;;;;;;4949340;28;20051;-74
2021/11/09 05:33:54;;;;;;;1.98;0.70;;;4.80;94.20;;;;;;4942350;28;20075;-73
2021/11/09 05:36:22;;;;;;;1.60;0.80;;;4.80;94.20;;;;;;4956988;28;20054;-74
2021/11/09 05:41:18;;;;;;;2.67;1.05;;;4.80;94.20;;;;;;4942893;28;20063;-74
2021/11/09 05:43:45;;;;;;;2.75;1.25;;;4.70;94.20;;;;;;4965114;28;20142;-74
2021/11/09 05:46:16;;;;;;;3.63;1.02;;;4.80;94.30;;;;;;4961692;28;20054;-74
2021/11/09 05:48:43;;;;;;;3.60;1.00;;;4.70;94.30;;;;;;4968074;28;20094;-74
2021/11/09 05:51:10;;;;;;;2.22;1.10;;;4.70;94.30;;;;;;4958834;28;20587;-75
2021/11/09 05:53:37;;;;;;;2.33;1.10;;;4.70;94.30;;;;;;4961847;28;20042;-74
2021/11/09 05:56:05;;;;;;;2.53;1.08;;;4.70;94.30;;;;;;4958969;28;21500;-73
2021/11/09 05:58:33;;;;;;;2.55;1.17;;;4.70;94.30;;;;;;4958910;28;20047;-74
2021/11/09 06:01:00;;;;;;;2.72;1.13;;;4.70;94.20;;;;;;4953980;28;20118;-74
2021/11/09 06:03:27;;;;;;;2.75;1.35;;;4.70;94.20;;;;;;4954358;28;20065;-74
2021/11/09 06:05:55;;;;;;;3.67;1.40;;;4.70;94.20;;;;;;4966378;28;20051;-74
2021/11/09 06:08:23;;;;;;;3.25;1.10;;;4.60;94.20;;;;;;4956831;28;20357;-74
2021/11/09 06:10:51;;;;;;;3.30;1.20;;;4.60;94.20;;;;;;4958765;28;20118;-74
2021/11/09 06:13:18;;;;;;;3.30;1.40;;;4.60;94.30;;;;;;4941138;28;20694;-74
2021/11/09 06:15:45;;;;;;;3.45;1.00;;;4.60;94.30;;;;;;4968380;28;20499;-73
2021/11/09 06:18:12;;;;;;;2.42;1.25;;;4.60;94.30;;;;;;4943560;28;20045;-73
2021/11/09 06:20:39;;;;;;;2.53;0.95;;;4.60;94.30;;;;;;4958460;28;20093;-74
2021/11/09 06:23:06;;;;;;;2.20;1.20;;;4.50;94.30;;;;;;4955595;28;20066;-74
2021/11/09 06:25:34;;;;;;;2.15;0.90;;;4.50;94.30;;;;;;4956219;28;20047;-74
2021/11/09 06:28:04;;;;;;;2.58;1.10;;;4.50;94.30;;;;;;4963470;28;20125;-74
2021/11/09 06:30:32;;;;;;;2.20;1.23;;;4.50;94.30;;;;;;4961160;28;20043;-74
2021/11/09 06:33:00;;;;;;;2.22;1.40;;;4.50;94.30;;;;;;4953259;28;20039;-74
2021/11/09 06:35:27;;;;;;;2.05;1.00;;;4.50;94.30;;;;;;4961734;28;20058;-74
2021/11/09 06:37:54;;;;;;;3.47;1.40;;;4.50;94.30;;;;;;4959544;28;20070;-74
2021/11/09 06:40:21;;;;;;;3.00;1.00;;;4.50;94.30;;;;;;4961685;28;20467;-74
2021/11/09 06:42:48;;;;;;;2.53;1.20;;;4.50;94.30;;;;;;4948839;28;20036;-74
2021/11/09 06:45:15;;;;;;;2.90;0.90;;;4.50;94.30;;;;;;4960577;28;20051;-74
2021/11/09 06:47:44;;;;;;;2.75;0.80;;;4.40;94.20;;;;;;4959877;28;20546;-74
2021/11/09 06:50:12;;;;;;;3.78;1.40;;;4.40;94.20;;;;;;4964821;28;20050;-74
2021/11/09 06:52:39;;;;;;;3.03;1.30;;;4.40;94.20;;;;;;4958924;28;20034;-74
2021/11/09 06:55:07;;;;;;;3.13;1.27;;;4.40;94.20;;;;;;4955554;28;20043;-74
2021/11/09 06:57:42;;;;;;;2.50;1.07;;;4.40;94.30;;;;;;4945959;28;20039;-73
2021/11/09 07:00:12;;;;;;;4.15;1.02;;;4.40;94.30;;;;;;4963136;28;20047;-74
2021/11/09 07:02:40;;;;;;;2.90;1.23;;;4.40;94.30;;;;;;4956284;28;20043;-74
2021/11/09 07:05:08;;;;;;;2.08;1.10;;;4.40;94.30;;;;;;4953327;28;20467;-74
2021/11/09 07:07:36;;;;;;;3.38;1.92;;;4.40;94.30;;;;;;4930762;28;20083;-74
2021/11/09 07:10:04;;;;;;;3.45;1.00;;;4.40;94.30;;;;;;4955565;28;20044;-74
2021/11/09 07:12:31;;;;;;;3.85;1.30;;;4.40;94.30;;;;;;4956209;28;20039;-74
2021/11/09 07:14:58;;;;;;;3.63;1.10;;;4.40;94.30;;;;;;4960077;28;20130;-74
2021/11/09 07:17:25;;;;;;;2.22;1.00;;;4.40;94.30;;;;;;4964482;28;20070;-74
2021/11/09 07:19:53;;;;;;;2.53;1.05;;;4.40;94.30;;;;;;4944157;28;20194;-74
2021/11/09 07:22:21;;;;;;;3.10;1.17;;;4.40;94.20;;;;;;4954276;28;20035;-74
2021/11/09 07:24:49;;;;;;;3.05;1.08;;;4.50;94.20;;;;;;4958856;28;20082;-74
2021/11/09 07:27:16;;;;;;;2.33;1.10;;;4.50;94.30;;;;;;4957260;28;20130;-74
2021/11/09 07:29:50;;;;;;;3.47;1.30;;;4.50;94.20;;;;;;4959956;28;20077;-74
2021/11/09 07:32:18;;;;;;;2.53;1.10;;;4.50;94.20;;;;;;4955864;28;20094;-75
2021/11/09 07:34:45;;;;;;;2.80;1.20;;;4.50;94.20;;;;;;4954159;28;20035;-74
2021/11/09 07:37:13;;;;;;;2.97;1.25;;;4.50;94.20;;;;;;4955560;28;20356;-75
2021/11/09 07:39:40;;;;;;;2.35;1.08;;;4.50;94.20;;;;;;4951893;28;20138;-74
2021/11/09 07:42:08;;;;;;;2.60;1.10;;;4.50;94.20;;;;;;4950689;28;20545;-74
2021/11/09 07:44:35;;;;;;;3.22;1.48;;;4.60;94.20;;;;;;4952125;28;20055;-74
2021/11/09 07:47:04;;;;;;;3.20;1.10;;;4.60;94.20;;;;;;4956998;28;20046;-74
2021/11/09 07:49:31;;;;;;;4.10;1.38;;;4.60;94.20;;;;;;4954875;28;20039;-74
2021/11/09 07:52:00;;;;;;;2.78;1.25;;;4.60;94.20;;;;;;4942104;28;20042;-75
2021/11/09 07:54:32;;;;;;;2.97;1.50;;;4.60;94.20;;;;;;4952327;28;20066;-74
2021/11/09 07:57:07;;;;;;;;;;;4.70;94.40;;;;;;4956630;28;20098;-75
2021/11/09 07:59:45;;;;;;;3.08;1.20;;;4.70;94.10;;;;;;4955469;28;19929;-74
2021/11/09 08:02:23;;;;;;;2.13;1.10;;;4.70;94.20;;;;;;4940790;28;20396;-74
2021/11/09 08:05:01;;;;;;;2.05;1.02;;;4.70;94.10;;;;;;4953077;28;20491;-74
2021/11/09 08:07:35;;;;;;;3.90;1.40;;;4.80;94.10;;;;;;4947452;28;20118;-74
2021/11/09 08:10:04;;;;;;;4.38;1.20;;;4.80;94.10;;;;;;4943715;28;20566;-74
2021/11/09 08:12:31;;;;;;;4.72;1.80;;;4.90;94.10;;;;;;4938620;28;20088;-74
2021/11/09 08:14:58;;;;;;;2.30;1.05;;;4.90;94.10;;;;;;4957558;28;20043;-74
2021/11/09 08:17:25;;;;;;;3.10;1.05;;;5.00;94.20;;;;;;4956030;28;20039;-75
2021/11/09 08:19:52;;;;;;;4.15;1.30;;;5.00;94.10;;;;;;4962509;28;20051;-75
2021/11/09 08:22:20;;;;;;;2.63;1.10;;;5.10;94.10;;;;;;4952772;28;20122;-75
2021/11/09 08:24:47;;;;;;;4.35;1.30;;;5.20;94.10;;;;;;4958303;28;20102;-75
2021/11/09 08:27:15;;;;;;;2.17;0.85;;;5.20;94.00;;;;;;4944326;28;20132;-74
2021/11/09 08:29:49;;;;;;;2.75;1.13;;;5.20;94.00;;;;;;4950517;28;20047;-75
2021/11/09 08:32:19;;;;;;;3.42;1.30;;;5.30;94.00;;;;;;4956512;28;20113;-75
2021/11/09 08:34:46;;;;;;;3.50;1.48;;;5.40;94.00;;;;;;4943714;28;20055;-75
2021/11/09 08:37:14;;;;;;;3.58;1.50;;;5.40;94.00;;;;;;4959303;28;20041;-75
2021/11/09 08:39:43;;;;;;;3.00;1.58;;;5.50;94.00;;;;;;4954425;28;20067;-75
2021/11/09 08:47:25;;;;;;;5.15;1.50;;;5.70;93.90;;;;;;4956494;28;20093;-75
2021/11/09 08:49:53;;;;;;;4.00;1.83;;;5.70;93.90;;;;;;4942595;28;20059;-75
2021/11/09 08:52:22;;;;;;;3.97;1.75;;;5.80;93.90;;;;;;4955297;28;20043;-74
2021/11/09 09:05:15;;;;;;;6.75;2.78;;;6.10;93.80;;;;;;4954477;28;20047;-74
2021/11/09 09:07:43;;;;;;;8.75;3.72;;;6.20;93.80;;;;;;4958868;28;20047;-72
2021/11/09 09:10:13;;;;;;;5.70;2.08;;;6.30;93.80;;;;;;4953880;28;20072;-74
2021/11/09 09:12:41;;;;;;;5.75;2.47;;;6.30;93.80;;;;;;4958574;28;20035;-74
2021/11/09 09:15:14;;;;;;;5.10;2.40;;;6.40;93.80;;;;;;4957262;28;20043;-73
2021/11/09 09:17:42;;;;;;;3.30;1.08;;;6.40;93.70;;;;;;4961232;28;20054;-73
2021/11/09 09:20:19;;;;;;;4.47;2.47;;;6.40;93.70;;;;;;4959068;28;20665;-73
2021/11/09 09:23:00;;;;;;;4.95;1.55;;;6.50;94.00;;;;;;4956362;28;20055;-74
2021/11/09 09:31:30;;;;;;;6.65;2.58;;;6.60;93.70;;;;;;4964283;28;20058;-76
2021/11/09 09:55:57;;;;;;;6.95;2.90;;;7.20;93.60;;;;;;4957183;28;20117;-75
2021/11/09 09:58:25;;;;;;;6.82;3.42;;;7.20;93.60;;;;;;4960983;28;20688;-75
2021/11/09 10:00:52;;;;;;;9.07;3.55;;;7.30;93.60;;;;;;4960259;28;20039;-74
2021/11/09 10:03:34;;;;;;;8.43;3.03;;;7.40;93.50;;;;;;4956212;28;20066;-75
2021/11/09 10:06:02;;;;;;;8.05;3.58;;;7.50;93.50;;;;;;4958130;28;20087;-75
2021/11/09 10:08:41;;;;;;;7.43;3.63;;;7.50;93.50;;;;;;4944914;28;20045;-74
2021/11/09 10:11:36;;;;;;;6.85;2.17;;;7.60;93.40;;;;;;4955395;28;20195;-75
2021/11/09 10:14:06;;;;;;;6.65;2.50;;;7.60;93.40;;;;;;4962881;28;20089;-74
2021/11/09 10:16:38;;;;;;;3.17;2.20;;;7.60;93.40;;;;;;4962038;28;20087;-75
2021/11/09 10:19:06;;;;;;;4.50;2.10;;;7.70;93.40;;;;;;4965680;28;20043;-74
2021/11/09 10:21:41;;;;;;;5.32;2.22;;;7.70;93.40;;;;;;4953485;28;20443;-74
2021/11/09 10:24:27;;;;;;;5.68;2.70;;;7.80;93.40;;;;;;4955519;28;20449;-73
2021/11/09 10:27:08;;;;;;;8.55;3.25;;;7.80;93.30;;;;;;4959528;28;20121;-74
2021/11/09 10:29:41;;;;;;;6.15;3.20;;;7.90;93.30;;;;;;4963464;28;20093;-73
2021/11/09 10:32:20;;;;;;;6.30;3.08;;;8.00;93.30;;;;;;4960614;28;20038;-74
2021/11/09 10:34:47;;;;;;;9.65;2.92;;;8.00;93.20;;;;;;4952053;28;20628;-74
2021/11/09 10:37:37;;;;;;;6.55;2.65;;;8.00;93.20;;;;;;4953679;28;20368;-75
2021/11/09 10:40:18;;;;;;;5.07;2.03;;;8.10;93.20;;;;;;4949172;28;20066;-74
2021/11/09 10:42:49;;;;;;;5.82;2.40;;;8.10;93.20;;;;;;4955321;28;20043;-73
2021/11/09 10:45:19;;;;;;;5.10;2.70;;;8.20;93.20;;;;;;4954253;28;20053;-73
2021/11/09 10:47:55;;;;;;;6.75;2.60;;;8.20;93.20;;;;;;4953945;28;20067;-73
2021/11/09 10:50:34;;;;;;;9.05;3.45;;;8.30;93.10;;;;;;4953602;28;20122;-78
2021/11/09 10:57:12;;;;;;;8.77;3.53;;;8.40;93.00;;;;;;4953849;28;20094;-75
2021/11/09 11:04:37;;;;;;;6.60;3.20;;;8.60;93.00;;;;;;4953661;28;20053;-73
2021/11/09 11:07:08;;;;;;;8.18;3.67;;;8.60;92.90;;;;;;4952796;28;20078;-73
2021/11/09 11:09:37;;;;;;;9.20;4.13;;;8.70;92.90;;;;;;4952983;28;20062;-73
2021/11/09 11:12:13;;;;;;;10.05;4.75;;;8.70;92.80;;;;;;4936754;28;20122;-73
2021/11/09 11:14:46;;;;;;;8.70;3.92;;;8.80;92.80;;;;;;4955491;28;20039;-74
2021/11/09 11:17:18;;;;;;;5.53;3.08;;;8.90;92.80;;;;;;4939434;28;20045;-74
2021/11/09 11:19:46;;;;;;;7.57;4.35;;;8.90;92.70;;;;;;4950719;28;20066;-74
2021/11/09 11:22:25;;;;;;;7.65;4.05;;;9.00;92.70;;;;;;4955118;28;20125;-74
2021/11/09 11:24:53;;;;;;;7.35;3.72;;;9.10;92.60;;;;;;4971903;28;20078;-74
2021/11/09 11:27:21;;;;;;;9.35;3.38;;;9.10;92.60;;;;;;4940664;28;20043;-74
2021/11/09 11:29:49;;;;;;;7.82;3.50;;;9.20;92.60;;;;;;4964097;28;20438;-74
2021/11/09 11:32:19;;;;;;;11.02;4.15;;;9.20;92.60;;;;;;4956819;28;20066;-74
2021/11/09 11:34:47;;;;;;;9.20;4.35;;;9.20;92.50;;;;;;4953823;28;20038;-73
2021/11/09 11:37:18;;;;;;;7.82;3.28;;;9.30;92.40;;;;;;4959540;28;20182;-73
2021/11/09 11:39:47;;;;;;;6.15;2.80;;;9.30;92.40;;;;;;4963059;28;20050;-77
2021/11/09 11:42:16;;;;;;;9.27;3.60;;;9.40;92.40;;;;;;4960046;28;20043;-77
2021/11/09 11:44:54;;;;;;;6.93;2.95;;;9.40;92.40;;;;;;4962066;28;20106;-75
2021/11/09 11:47:21;;;;;;;6.07;3.05;;;9.40;92.40;;;;;;4961330;28;20470;-75
2021/11/09 11:49:57;;;;;;;3.67;1.90;;;9.40;92.40;;;;;;4962889;28;20113;-76
2021/11/09 11:52:33;;;;;;;5.85;2.30;;;9.50;92.40;;;;;;4966218;28;20048;-76
2021/11/09 11:55:23;;;;;;;4.82;2.03;;;9.40;92.30;;;;;;4963171;28;20046;-77
2021/11/09 11:58:07;;;;;;;4.50;2.00;;;9.40;92.30;;;;;;4958533;28;20069;-76
2021/11/09 12:00:56;;;;;;;6.95;3.08;;;9.50;92.40;;;;;;4962167;28;20051;-76
2021/11/09 12:03:23;;;;;;;5.15;2.30;;;9.50;92.30;;;;;;4956170;28;20507;-77
2021/11/09 12:05:56;;;;;;;4.95;2.67;;;9.60;92.20;;;;;;4966117;28;20142;-77
2021/11/09 12:08:37;;;;;;;11.88;3.63;;;9.70;92.20;;;;;;4965638;28;20061;-76
2021/11/09 12:11:09;;;;;;;7.22;3.00;;;9.70;92.00;;;;;;4958309;28;20031;-76
2021/11/09 12:14:00;;;;;;;6.97;2.60;;;9.80;92.10;;;;;;4958794;28;20047;-77
2021/11/09 12:16:50;;;;;;;7.68;2.97;;;9.80;92.00;;;;;;4957651;28;20058;-75
2021/11/09 12:19:40;;;;;;;8.10;2.65;;;9.90;91.90;;;;;;4957032;28;20042;-74
2021/11/09 12:22:09;;;;;;;5.13;2.25;;;9.90;91.90;;;;;;4952762;28;20457;-74
2021/11/09 12:24:59;;;;;;;6.47;2.63;;;9.90;91.90;;;;;;4953483;28;20039;-74
2021/11/09 12:27:57;;;;;;;8.20;2.50;;;10.00;91.90;;;;;;4953945;28;20079;-74
2021/11/09 12:30:34;;;;;;;7.75;2.90;;;10.10;91.90;;;;;;4946694;28;20055;-74
2021/11/09 12:33:14;;;;;;;7.75;3.38;;;10.10;91.80;;;;;;4952337;28;20062;-75
2021/11/09 12:35:58;;;;;;;5.32;2.65;;;10.10;91.80;;;;;;4952080;28;20134;-74
2021/11/09 12:38:46;;;;;;;6.80;2.28;;;10.10;91.80;;;;;;4960041;28;20142;-74
2021/11/09 12:41:16;;;;;;;5.78;2.25;;;10.10;91.80;;;;;;4962119;28;20050;-74
2021/11/09 12:43:47;;;;;;;4.85;2.25;;;10.00;91.80;;;;;;4957564;28;20102;-74
2021/11/09 12:46:29;;;;;;;5.88;2.65;;;10.10;91.80;;;;;;4956237;28;20047;-74
2021/11/09 12:49:04;;;;;;;;;;;10.20;91.70;;;;;;4958338;28;20133;-73
2021/11/09 12:51:34;;;;;;;4.35;2.67;;;10.20;91.70;;;;;;4953856;28;19929;-74
2021/11/09 12:54:16;;;;;;;9.63;3.35;;;10.20;91.60;;;;;;4950481;28;20039;-74
2021/11/09 12:56:45;;;;;;;7.88;3.00;;;10.30;91.50;;;;;;4952589;28;20062;-74
2021/11/09 13:04:29;;;;;;;5.85;2.28;;;10.30;91.40;;;;;;4960029;28;20785;-74
2021/11/09 13:10:09;;;;;;;5.78;2.10;;;10.30;91.50;;;;;;4959575;28;20717;-75
2021/11/09 13:12:38;;;;;;;3.78;1.40;;;10.40;91.80;;;;;;4945374;28;20078;-75
2021/11/09 13:15:26;;;;;;;3.50;1.52;;;10.30;91.50;;;;;;4958494;28;20146;-74
2021/11/09 13:18:03;;;;;;;6.90;2.40;;;10.30;91.50;;;;;;4958666;28;20118;-74
2021/11/09 13:20:35;;;;;;;6.82;2.45;;;10.30;91.40;;;;;;4963527;28;20047;-74
2021/11/09 13:23:12;;;;;;;11.32;4.00;;;10.40;91.40;;;;;;4964046;28;20109;-75
2021/11/09 13:25:46;;;;;;;8.02;5.10;;;10.40;91.20;;;;;;4965891;28;20403;-76
2021/11/09 13:28:22;;;;;;;7.10;3.25;;;10.40;91.10;;;;;;4963525;28;20654;-75
2021/11/09 13:31:06;;;;;;;;;;;10.50;91.20;;;;;;4965135;28;20051;-76
2021/11/09 13:33:41;;;;;;;9.63;2.88;;;10.40;91.10;;;;;;4968986;28;19930;-75
2021/11/09 13:36:09;;;;;;;6.40;2.83;;;10.40;91.20;;;;;;4945998;28;20050;-75
2021/11/09 13:38:39;;;;;;;4.30;1.95;;;10.40;91.20;;;;;;4959441;28;20094;-75
2021/11/09 13:41:18;;;;;;;5.25;1.58;;;10.40;91.20;;;;;;4964222;28;20101;-75
2021/11/09 13:43:57;;;;;;;3.72;1.77;;;10.40;91.20;;;;;;4963657;28;20051;-76
2021/11/09 13:46:29;;;;;;;5.32;1.58;;;10.40;91.20;;;;;;4963819;28;20438;-75
2021/11/09 13:49:03;;;;;;;3.75;1.67;;;10.40;91.20;;;;;;4965063;28;20055;-75
2021/11/09 13:51:37;;;;;;;3.90;2.00;;;10.40;91.20;;;;;;4959756;28;20068;-75
2021/11/09 13:54:14;;;;;;;4.65;1.67;;;10.40;91.20;;;;;;4962227;28;20045;-75
2021/11/09 13:56:46;;;;;;;4.03;1.98;;;10.30;91.20;;;;;;4959292;28;20038;-75
2021/11/09 13:59:16;;;;;;;5.38;1.80;;;10.30;91.30;;;;;;4963221;28;20043;-75
2021/11/09 14:02:16;;;;;;;2.90;1.30;;;10.30;91.30;;;;;;4943120;28;20043;-75
2021/11/09 14:05:22;;;;;;;3.08;1.00;;;10.40;91.30;;;;;;4962311;28;20058;-75
2021/11/09 14:08:01;;;;;;;4.77;1.20;;;10.40;91.20;;;;;;4949721;28;20174;-75
2021/11/09 14:15:52;;;;;;;4.47;1.88;;;10.60;90.90;;;;;;4958607;28;20047;-75
2021/11/09 14:18:23;;;;;;;4.97;1.80;;;10.70;90.80;;;;;;4962248;28;20047;-76
2021/11/09 14:20:59;;;;;;;4.05;1.52;;;10.70;90.80;;;;;;4966239;28;20341;-74
2021/11/09 14:23:34;;;;;;;3.50;1.38;;;10.80;90.70;;;;;;4960865;28;20047;-76
2021/11/09 14:26:23;;;;;;;4.32;0.93;;;10.80;90.70;;;;;;4961523;28;20546;-74
2021/11/09 14:28:55;;;;;;;3.70;2.10;;;10.80;90.70;;;;;;4959360;28;20558;-76
2021/11/09 14:31:26;;;;;;;4.70;1.83;;;10.80;90.60;;;;;;4954553;28;20047;-75
2021/11/09 14:34:11;;;;;;;4.22;1.42;;;10.80;90.60;;;;;;4955209;28;20046;-76
2021/11/09 14:36:40;;;;;;;4.38;1.50;;;10.90;90.70;;;;;;4962846;28;20047;-77
2021/11/09 14:39:11;;;;;;;4.20;1.25;;;10.80;90.60;;;;;;4965036;28;20043;-76
2021/11/09 14:48:04;;;;;;;3.72;0.90;;;10.90;90.50;;;;;;4960887;28;20384;-76
2021/11/09 14:50:53;;;;;;;3.53;1.20;;;11.00;90.80;;;;;;4960536;28;20066;-76
2021/11/09 14:53:26;;;;;;;3.85;0.70;;;10.90;90.60;;;;;;4964106;28;20129;-76
2021/11/09 14:56:06;;;;;;;3.50;0.90;;;11.00;90.60;;;;;;4963584;28;20039;-77
2021/11/09 14:58:42;;;;;;;2.63;1.17;;;10.90;90.50;;;;;;4964418;28;20400;-77
2021/11/09 15:01:24;;;;;;;2.47;0.90;;;10.90;90.50;;;;;;4963975;28;20452;-75
2021/11/09 15:04:17;;;;;;;4.82;1.08;;;10.90;90.50;;;;;;4963450;28;20051;-75
2021/11/09 15:30:46;;;;;;;1.17;0.47;;;10.60;90.70;;;;;;4956195;28;20078;-74
2021/11/09 15:33:21;;;;;;;0.88;0.35;;;10.60;90.80;;;;;;4944546;28;20130;-75
2021/11/09 15:38:24;;;;;;;1.77;0.40;;;10.50;90.90;;;;;;4957916;28;20518;-75
2021/11/09 15:40:52;;;;;;;1.08;0.40;;;10.50;90.90;;;;;;4943915;28;20070;-75
2021/11/09 15:43:20;;;;;;;1.77;0.30;;;10.40;90.90;;;;;;4943453;28;20161;-75
2021/11/09 15:45:48;;;;;;;0.75;0.30;;;10.40;91.00;;;;;;4961595;28;20050;-75
2021/11/09 15:48:16;;;;;;;2.00;0.45;;;10.30;91.00;;;;;;4962774;28;20070;-75
2021/11/09 15:50:44;;;;;;;1.05;0.45;;;10.30;91.00;;;;;;4947937;28;20142;-75
2021/11/09 15:53:12;;;;;;;1.20;0.50;;;10.20;91.10;;;;;;4957812;28;20035;-76
2021/11/09 15:55:39;;;;;;;1.10;0.30;;;10.20;91.10;;;;;;4964395;28;20098;-75
2021/11/09 15:58:06;;;;;;;1.15;0.50;;;10.10;91.20;;;;;;4961025;28;20492;-76
2021/11/09 16:00:33;;;;;;;1.23;0.45;;;10.00;91.20;;;;;;4964987;28;20562;-76
2021/11/09 16:03:00;;;;;;;1.42;0.40;;;10.00;91.30;;;;;;4945886;28;20050;-75
2021/11/09 16:05:32;;;;;;;1.17;0.60;;;9.90;91.30;;;;;;4961442;28;20070;-75
2021/11/09 16:07:59;;;;;;;1.38;0.40;;;9.80;91.40;;;;;;4934367;28;20093;-75
2021/11/09 16:10:28;;;;;;;1.77;0.47;;;9.80;91.40;;;;;;4948907;28;20043;-76
2021/11/09 16:12:55;;;;;;;1.13;0.30;;;9.70;91.50;;;;;;4961733;28;20074;-76
2021/11/09 16:15:22;;;;;;;0.93;0.50;;;9.60;91.50;;;;;;4939896;28;20339;-76
2021/11/09 16:17:49;;;;;;;1.38;0.30;;;9.50;91.60;;;;;;4934000;28;20043;-76
2021/11/09 16:20:17;;;;;;;0.93;0.40;;;9.40;91.60;;;;;;4941501;28;20046;-74